Anthem Of The Seas — C6BI7 — position and weather

sailwx.info

Track history (hours):
 
Tides and Currents Weather Stations Pressure Air Temp Water Temp Dewpoint Dewpoint Depression Visibility Wind Speed Wind Dir Waves Ship Positions

Anthem Of The Seas

Last reported at 2017-Jul-20 18:29 UTC. Time now 2017-Jul-20 18:38 UTC.
Position N 40°40' W 074°04'.

Length 348 m; draft 8.8 m.

Type: Passenger vessel. MMSI: 311000274.

Date/timePositionNaut miles runAvg speedWind from/ knotsBaromVisibWave heightAir tempDewpointWater temp
2017-Jul-20 18:29N 40°40' W 074°04'0 0.0
2017-Jul-20 17:59N 40°40' W 074°04'0 0.0
2017-Jul-20 17:29N 40°40' W 074°04'0 0.0
2017-Jul-20 16:59N 40°40' W 074°04'0 0.0
2017-Jul-20 16:29N 40°40' W 074°04'0 0.0
2017-Jul-20 15:59N 40°40' W 074°04'0 0.0
2017-Jul-20 15:29N 40°40' W 074°04'0 0.0
2017-Jul-20 14:59N 40°40' W 074°04'0 0.0
2017-Jul-20 13:59N 40°40' W 074°04'0 0.0
2017-Jul-20 13:29N 40°40' W 074°04'0 0.0
2017-Jul-20 12:59N 40°40' W 074°04'0 0.0
2017-Jul-20 12:29N 40°40' W 074°04'0 0.0
2017-Jul-20 11:59N 40°40' W 074°04'0 0.0
2017-Jul-20 11:29N 40°40' W 074°04'0 0.0
2017-Jul-20 11:00N 40°40' W 074°04'2 3.2
2017-Jul-20 10:30N 40°39' W 074°03'611.6
2017-Jul-20 10:01N 40°33' W 074°02'713.5
2017-Jul-20 09:31N 40°29' W 073°54'612.8
2017-Jul-20 09:00N 40°26' W 073°47'714.7
2017-Jul-20 08:30N 40°22' W 073°39'816.9
2017-Jul-20 08:00N 40°17' W 073°30'816.8
2017-Jul-20 07:30N 40°12' W 073°21'816.7
2017-Jul-20 07:00N 40°07' W 073°13'816.8
2017-Jul-20 06:30N 40°01' W 073°05'917.0
2017-Jul-20 06:00N 39°55' W 072°56'816.8
2017-Jul-20 05:30N 39°50' W 072°48'917.6
2017-Jul-20 05:00N 39°43' W 072°40'917.8
2017-Jul-20 04:30N 39°37' W 072°33'918.2
2017-Jul-20 04:00N 39°30' W 072°24'918.9
2017-Jul-20 03:30N 39°23' W 072°16'918.7
2017-Jul-20 03:00N 39°16' W 072°08'918.5
2017-Jul-20 02:30N 39°09' W 072°00'  
2017-Jul-15 22:55N 40°04' W 073°24'1017.5
2017-Jul-15 22:21N 40°12' W 073°33'1017.4
2017-Jul-15 21:45N 40°20' W 073°41'716.8
2017-Jul-15 21:18N 40°26' W 073°47'413.9
2017-Jul-15 21:00N 40°28' W 073°52'917.4
2017-Jul-15 20:30N 40°33' W 074°02'713.5
2017-Jul-15 20:00N 40°39' W 074°03'1 1.4
2017-Jul-15 19:28N 40°40' W 074°04'0 0.0
2017-Jul-15 18:58N 40°40' W 074°04'0 0.0
2017-Jul-15 18:28N 40°40' W 074°04'0 0.0
2017-Jul-15 17:58N 40°40' W 074°04'0 0.0
2017-Jul-15 17:28N 40°40' W 074°04'0 0.0
2017-Jul-15 16:58N 40°40' W 074°04'0 0.0
2017-Jul-15 16:28N 40°40' W 074°04'0 0.0
2017-Jul-15 15:58N 40°40' W 074°04'0 0.0
2017-Jul-15 15:28N 40°40' W 074°04'0 0.0
2017-Jul-15 14:58N 40°40' W 074°04'0 0.0
2017-Jul-15 13:58N 40°40' W 074°04'0 0.0
2017-Jul-15 13:28N 40°40' W 074°04'0 0.0
2017-Jul-15 12:58N 40°40' W 074°04'0 0.0
2017-Jul-15 12:28N 40°40' W 074°04'0 0.0
2017-Jul-15 11:58N 40°40' W 074°04'0 0.0
2017-Jul-15 11:28N 40°40' W 074°04'0 0.0
2017-Jul-15 11:00N 40°40' W 074°04'2 4.2
2017-Jul-15 10:30N 40°38' W 074°03'714.9
2017-Jul-15 10:01N 40°31' W 073°59'816.7
2017-Jul-15 09:30N 40°27' W 073°49'510.5
2017-Jul-15 09:00N 40°23' W 073°47'1016.2
2017-Jul-15 08:23N 40°13' W 073°45'616.8
2017-Jul-15 08:00N 40°06' W 073°44'816.6
2017-Jul-15 07:30N 39°58' W 073°43'816.5
2017-Jul-15 07:00N 39°50' W 073°41'916.7
2017-Jul-15 06:30N 39°41' W 073°40'916.7
2017-Jul-15 05:59N 39°33' W 073°39'916.8
2017-Jul-15 05:27N 39°24' W 073°39'717.2
2017-Jul-15 05:00N 39°16' W 073°38'917.2
2017-Jul-15 04:31N 39°08' W 073°38'917.2
2017-Jul-15 04:00N 38°59' W 073°37'917.3
2017-Jul-15 03:29N 38°50' W 073°34'817.0
2017-Jul-15 03:00N 38°42' W 073°33'  
2017-Jul-11 19:28N 18°34' W 066°16'818.2
2017-Jul-11 19:01N 18°30' W 066°08'3 5.5
2017-Jul-11 18:30N 18°28' W 066°07'0 0.1
2017-Jul-11 17:55N 18°28' W 066°07'0 0.0
2017-Jul-11 17:28N 18°28' W 066°07'0 0.0
2017-Jul-11 16:58N 18°28' W 066°07'0 0.0
2017-Jul-11 16:25N 18°28' W 066°07'0 0.0
2017-Jul-11 15:58N 18°28' W 066°07'0 0.0
2017-Jul-11 15:28N 18°28' W 066°07'0 0.0
2017-Jul-11 14:58N 18°28' W 066°07'0 0.0
2017-Jul-11 14:28N 18°28' W 066°07'0 0.0
2017-Jul-11 13:58N 18°28' W 066°07'0 0.0
2017-Jul-11 13:28N 18°28' W 066°07'0 0.0
2017-Jul-11 12:58N 18°28' W 066°07'0 0.0
2017-Jul-11 12:28N 18°28' W 066°07'0 0.0
2017-Jul-11 11:52N 18°28' W 066°07'0 0.0
2017-Jul-11 11:25N 18°28' W 066°07'0 0.0
2017-Jul-11 10:58N 18°28' W 066°07'0 1.0
2017-Jul-11 10:30N 18°27' W 066°07'4 8.6
2017-Jul-11 10:01N 18°32' W 066°06'815.7
2017-Jul-11 09:30N 18°32' W 065°57'816.7
2017-Jul-11 09:00N 18°31' W 065°49'5217.0
2017-Jul-11 05:59N 18°13' W 064°58'918.6
2017-Jul-11 05:30N 18°11' W 064°48'8018.1
2017-Jul-11 01:04N 18°02' W 063°24'218.0
2017-Jul-11 00:59N 18°02' W 063°23'1018.4
2017-Jul-11 00:27N 18°01' W 063°13'817.3
2017-Jul-11 00:00N 18°00' W 063°05'2 2.8
2017-Jul-10 23:19N 18°01' W 063°03'0 0.0
2017-Jul-10 22:49N 18°01' W 063°03'0 0.0
2017-Jul-10 22:07N 18°01' W 063°03'0 0.0
2017-Jul-10 21:46N 18°01' W 063°03'0 0.0
2017-Jul-10 20:38N 18°01' W 063°03'0 0.0
2017-Jul-10 20:23N 18°01' W 063°03'0 0.0
2017-Jul-10 19:49N 18°01' W 063°03'0 0.0
2017-Jul-10 18:40N 18°01' W 063°03'  
Track history (hours):
 
Tides and Currents Weather Stations Pressure Air Temp Water Temp Dewpoint Dewpoint Depression Visibility Wind Speed Wind Dir Waves Ship Positions

Anthem Of The Seas

Last reported at 2017-Jul-20 18:29 UTC. Time now 2017-Jul-20 18:38 UTC.
Position N 40°40' W 074°04'.

Length 348 m; draft 8.8 m.

Type: Passenger vessel. MMSI: 311000274.

Date/timePositionNaut miles runAvg speedWind from/ knotsBaromVisibWave heightAir tempDewpointWater temp
2017-Jul-20 18:29N 40°40' W 074°04'0 0.0
2017-Jul-20 17:59N 40°40' W 074°04'0 0.0
2017-Jul-20 17:29N 40°40' W 074°04'0 0.0
2017-Jul-20 16:59N 40°40' W 074°04'0 0.0
2017-Jul-20 16:29N 40°40' W 074°04'0 0.0
2017-Jul-20 15:59N 40°40' W 074°04'0 0.0
2017-Jul-20 15:29N 40°40' W 074°04'0 0.0
2017-Jul-20 14:59N 40°40' W 074°04'0 0.0
2017-Jul-20 13:59N 40°40' W 074°04'0 0.0
2017-Jul-20 13:29N 40°40' W 074°04'0 0.0
2017-Jul-20 12:59N 40°40' W 074°04'0 0.0
2017-Jul-20 12:29N 40°40' W 074°04'0 0.0
2017-Jul-20 11:59N 40°40' W 074°04'0 0.0
2017-Jul-20 11:29N 40°40' W 074°04'0 0.0
2017-Jul-20 11:00N 40°40' W 074°04'2 3.2
2017-Jul-20 10:30N 40°39' W 074°03'611.6
2017-Jul-20 10:01N 40°33' W 074°02'713.5
2017-Jul-20 09:31N 40°29' W 073°54'612.8
2017-Jul-20 09:00N 40°26' W 073°47'714.7
2017-Jul-20 08:30N 40°22' W 073°39'816.9
2017-Jul-20 08:00N 40°17' W 073°30'816.8
2017-Jul-20 07:30N 40°12' W 073°21'816.7
2017-Jul-20 07:00N 40°07' W 073°13'816.8
2017-Jul-20 06:30N 40°01' W 073°05'917.0
2017-Jul-20 06:00N 39°55' W 072°56'816.8
2017-Jul-20 05:30N 39°50' W 072°48'917.6
2017-Jul-20 05:00N 39°43' W 072°40'917.8
2017-Jul-20 04:30N 39°37' W 072°33'918.2
2017-Jul-20 04:00N 39°30' W 072°24'918.9
2017-Jul-20 03:30N 39°23' W 072°16'918.7
2017-Jul-20 03:00N 39°16' W 072°08'918.5
2017-Jul-20 02:30N 39°09' W 072°00'  
2017-Jul-15 22:55N 40°04' W 073°24'1017.5
2017-Jul-15 22:21N 40°12' W 073°33'1017.4
2017-Jul-15 21:45N 40°20' W 073°41'716.8
2017-Jul-15 21:18N 40°26' W 073°47'413.9
2017-Jul-15 21:00N 40°28' W 073°52'917.4
2017-Jul-15 20:30N 40°33' W 074°02'713.5
2017-Jul-15 20:00N 40°39' W 074°03'1 1.4
2017-Jul-15 19:28N 40°40' W 074°04'0 0.0
2017-Jul-15 18:58N 40°40' W 074°04'0 0.0
2017-Jul-15 18:28N 40°40' W 074°04'0 0.0
2017-Jul-15 17:58N 40°40' W 074°04'0 0.0
2017-Jul-15 17:28N 40°40' W 074°04'0 0.0
2017-Jul-15 16:58N 40°40' W 074°04'0 0.0
2017-Jul-15 16:28N 40°40' W 074°04'0 0.0
2017-Jul-15 15:58N 40°40' W 074°04'0 0.0
2017-Jul-15 15:28N 40°40' W 074°04'0 0.0
2017-Jul-15 14:58N 40°40' W 074°04'0 0.0
2017-Jul-15 13:58N 40°40' W 074°04'0 0.0
2017-Jul-15 13:28N 40°40' W 074°04'0 0.0
2017-Jul-15 12:58N 40°40' W 074°04'0 0.0
2017-Jul-15 12:28N 40°40' W 074°04'0 0.0
2017-Jul-15 11:58N 40°40' W 074°04'0 0.0
2017-Jul-15 11:28N 40°40' W 074°04'0 0.0
2017-Jul-15 11:00N 40°40' W 074°04'2 4.2
2017-Jul-15 10:30N 40°38' W 074°03'714.9
2017-Jul-15 10:01N 40°31' W 073°59'816.7
2017-Jul-15 09:30N 40°27' W 073°49'510.5
2017-Jul-15 09:00N 40°23' W 073°47'1016.2
2017-Jul-15 08:23N 40°13' W 073°45'616.8
2017-Jul-15 08:00N 40°06' W 073°44'816.6
2017-Jul-15 07:30N 39°58' W 073°43'816.5
2017-Jul-15 07:00N 39°50' W 073°41'916.7
2017-Jul-15 06:30N 39°41' W 073°40'916.7
2017-Jul-15 05:59N 39°33' W 073°39'916.8
2017-Jul-15 05:27N 39°24' W 073°39'717.2
2017-Jul-15 05:00N 39°16' W 073°38'917.2
2017-Jul-15 04:31N 39°08' W 073°38'917.2
2017-Jul-15 04:00N 38°59' W 073°37'917.3
2017-Jul-15 03:29N 38°50' W 073°34'817.0
2017-Jul-15 03:00N 38°42' W 073°33'  
2017-Jul-11 19:28N 18°34' W 066°16'818.2
2017-Jul-11 19:01N 18°30' W 066°08'3 5.5
2017-Jul-11 18:30N 18°28' W 066°07'0 0.1
2017-Jul-11 17:55N 18°28' W 066°07'0 0.0
2017-Jul-11 17:28N 18°28' W 066°07'0 0.0
2017-Jul-11 16:58N 18°28' W 066°07'0 0.0
2017-Jul-11 16:25N 18°28' W 066°07'0 0.0
2017-Jul-11 15:58N 18°28' W 066°07'0 0.0
2017-Jul-11 15:28N 18°28' W 066°07'0 0.0
2017-Jul-11 14:58N 18°28' W 066°07'0 0.0
2017-Jul-11 14:28N 18°28' W 066°07'0 0.0
2017-Jul-11 13:58N 18°28' W 066°07'0 0.0
2017-Jul-11 13:28N 18°28' W 066°07'0 0.0
2017-Jul-11 12:58N 18°28' W 066°07'0 0.0
2017-Jul-11 12:28N 18°28' W 066°07'0 0.0
2017-Jul-11 11:52N 18°28' W 066°07'0 0.0
2017-Jul-11 11:25N 18°28' W 066°07'0 0.0
2017-Jul-11 10:58N 18°28' W 066°07'0 1.0
2017-Jul-11 10:30N 18°27' W 066°07'4 8.6
2017-Jul-11 10:01N 18°32' W 066°06'815.7
2017-Jul-11 09:30N 18°32' W 065°57'816.7
2017-Jul-11 09:00N 18°31' W 065°49'5217.0
2017-Jul-11 05:59N 18°13' W 064°58'918.6
2017-Jul-11 05:30N 18°11' W 064°48'8018.1
2017-Jul-11 01:04N 18°02' W 063°24'218.0
2017-Jul-11 00:59N 18°02' W 063°23'1018.4
2017-Jul-11 00:27N 18°01' W 063°13'817.3
2017-Jul-11 00:00N 18°00' W 063°05'2 2.8
2017-Jul-10 23:19N 18°01' W 063°03'0 0.0
2017-Jul-10 22:49N 18°01' W 063°03'0 0.0
2017-Jul-10 22:07N 18°01' W 063°03'0 0.0
2017-Jul-10 21:46N 18°01' W 063°03'0 0.0
2017-Jul-10 20:38N 18°01' W 063°03'0 0.0
2017-Jul-10 20:23N 18°01' W 063°03'0 0.0
2017-Jul-10 19:49N 18°01' W 063°03'0 0.0
2017-Jul-10 18:40N 18°01' W 063°03'  

Dump ship's entire track history